Time;durP1;ratioP1;P1;durP2;ratioP2;P2;SDS_P1;SDS_P2;PMS_P1;PMS_P2;Temp;Humidity;BMP_temperature;BMP_pressure;BME280_temperature;BME280_humidity;BME280_pressure;Samples;Min_cycle;Max_cycle;Signal;HPM_P1;HPM_P2
2022/02/17 00:00:44;;;;;;;24.10;14.88;;;153.90;2252.80;;;;;;4973047;28;20059;-59
2022/02/17 00:03:10;;;;;;;33.05;20.38;;;153.90;2252.80;;;;;;4972767;28;20019;-60
2022/02/17 00:05:37;;;;;;;69.43;37.65;;;153.90;2252.80;;;;;;4973324;28;20042;-63
2022/02/17 00:08:03;;;;;;;24.33;16.75;;;153.80;2252.80;;;;;;4972764;28;20038;-61
2022/02/17 00:10:30;;;;;;;27.25;19.00;;;153.60;2252.80;;;;;;4972673;28;20058;-59
2022/02/17 00:12:57;;;;;;;21.50;14.32;;;128.50;2252.80;;;;;;4972929;28;20099;-61
2022/02/17 00:15:25;;;;;;;22.75;14.98;;;128.10;2252.80;;;;;;4972797;28;20031;-61
2022/02/17 00:17:50;;;;;;;22.30;15.75;;;128.00;2252.80;;;;;;4973054;28;20034;-60
2022/02/17 00:20:16;;;;;;;28.98;17.90;;;103.20;2227.20;;;;;;4973172;28;20475;-64
2022/02/17 00:22:42;;;;;;;23.77;15.85;;;103.20;2227.20;;;;;;4973153;28;20023;-59
2022/02/17 00:25:09;;;;;;;68.88;35.72;;;103.20;2227.20;;;;;;4973103;28;20034;-60
2022/02/17 00:27:34;;;;;;;61.53;31.15;;;128.10;2252.80;;;;;;4973321;28;20043;-59
2022/02/17 00:30:01;;;;;;;42.70;29.02;;;128.50;2252.80;;;;;;4972613;28;20031;-59
2022/02/17 00:32:27;;;;;;;22.63;15.82;;;128.50;2252.80;;;;;;4973276;28;20023;-59
2022/02/17 00:34:52;;;;;;;23.27;16.88;;;128.50;2252.80;;;;;;4973197;28;20045;-59
2022/02/17 00:37:18;;;;;;;21.33;14.90;;;128.10;2252.80;;;;;;4972579;28;20474;-60
2022/02/17 00:39:44;;;;;;;17.83;12.10;;;103.20;2227.20;;;;;;4972528;28;20097;-60
2022/02/17 00:42:10;;;;;;;18.42;11.30;;;103.20;2227.20;;;;;;4972645;28;20034;-59
2022/02/17 00:44:35;;;;;;;19.02;11.48;;;103.20;2227.20;;;;;;4972711;28;20027;-60
2022/02/17 00:47:01;;;;;;;17.02;11.70;;;103.10;2227.20;;;;;;4971876;28;20370;-60
2022/02/17 00:49:28;;;;;;;16.50;10.45;;;103.10;2227.20;;;;;;4972683;28;20524;-59
2022/02/17 00:51:55;;;;;;;15.98;10.52;;;103.10;2227.20;;;;;;4971319;28;20458;-60
2022/02/17 00:54:22;;;;;;;17.92;10.70;;;103.10;2227.20;;;;;;4972521;28;20047;-60
2022/02/17 00:56:48;;;;;;;13.40;9.70;;;103.20;2227.20;;;;;;4972207;28;20076;-61
2022/02/17 00:59:13;;;;;;;18.13;11.70;;;103.20;2227.20;;;;;;4972478;28;20039;-59
2022/02/17 01:01:40;;;;;;;22.02;13.82;;;103.20;2227.20;;;;;;4971965;28;20112;-60
2022/02/17 01:04:06;;;;;;;25.85;15.32;;;103.10;2227.20;;;;;;4972504;28;20046;-59
2022/02/17 01:06:34;;;;;;;19.42;13.65;;;103.20;2227.20;;;;;;4971113;28;20039;-60
2022/02/17 01:08:59;;;;;;;28.92;18.67;;;103.20;2227.20;;;;;;4972270;28;20113;-59
2022/02/17 01:11:25;;;;;;;29.70;20.17;;;103.00;2227.20;;;;;;4972354;28;20461;-59
2022/02/17 01:13:51;;;;;;;26.65;16.73;;;103.00;2227.20;;;;;;4972017;28;20038;-60
2022/02/17 01:16:16;;;;;;;36.40;19.10;;;102.90;2227.20;;;;;;4972212;28;20026;-60
2022/02/17 01:18:42;;;;;;;32.85;20.15;;;103.00;2227.20;;;;;;4972045;28;20078;-59
2022/02/17 01:21:08;;;;;;;48.47;26.88;;;103.00;2227.20;;;;;;4971863;28;20384;-60
2022/02/17 01:23:33;;;;;;;45.78;18.85;;;103.10;2227.20;;;;;;4972216;28;20109;-59
2022/02/17 01:26:00;;;;;;;52.45;25.20;;;103.30;2227.20;;;;;;4971770;28;20105;-60
2022/02/17 01:28:25;;;;;;;39.55;24.27;;;128.10;2252.80;;;;;;4971785;28;20093;-60
2022/02/17 01:30:51;;;;;;;32.38;17.10;;;128.20;2252.80;;;;;;4971763;28;20149;-64
2022/02/17 01:33:17;;;;;;;32.17;21.77;;;128.20;2252.80;;;;;;4971788;28;20042;-61
2022/02/17 01:35:42;;;;;;;22.25;13.45;;;128.20;2252.80;;;;;;4971838;28;20412;-61
2022/02/17 01:38:08;;;;;;;13.55;8.52;;;128.00;2252.80;;;;;;4971603;28;20033;-61
2022/02/17 01:40:37;;;;;;;16.85;9.20;;;128.20;2252.80;;;;;;4971785;28;20035;-60
2022/02/17 01:43:03;;;;;;;92.95;36.28;;;128.30;2252.80;;;;;;4972073;28;20045;-61
2022/02/17 01:45:28;;;;;;;37.15;19.33;;;128.30;2252.80;;;;;;4971802;28;20030;-60
2022/02/17 01:47:54;;;;;;;19.15;12.80;;;128.40;2252.80;;;;;;4971383;28;20384;-60
2022/02/17 01:50:20;;;;;;;60.90;28.48;;;128.20;2252.80;;;;;;4971515;28;20035;-60
2022/02/17 01:52:46;;;;;;;24.48;14.55;;;128.20;2252.80;;;;;;4971728;28;20473;-60
2022/02/17 01:55:12;;;;;;;14.10;9.43;;;128.30;2252.80;;;;;;4953987;28;20458;-60
2022/02/17 01:57:38;;;;;;;24.08;14.38;;;128.50;2252.80;;;;;;4971071;28;20037;-60
2022/02/17 02:00:07;;;;;;;54.60;26.23;;;128.40;2252.80;;;;;;4971024;28;20055;-59
2022/02/17 02:02:32;;;;;;;25.95;15.15;;;128.50;2252.80;;;;;;4971197;28;20034;-60
2022/02/17 02:04:58;;;;;;;13.10;6.75;;;128.70;2252.80;;;;;;4971194;28;20031;-60
2022/02/17 02:07:24;;;;;;;9.07;6.68;;;128.70;2252.80;;;;;;4971341;28;20034;-65
2022/02/17 02:09:50;;;;;;;16.80;8.82;;;128.50;2252.80;;;;;;4971218;28;20050;-60
2022/02/17 02:12:16;;;;;;;11.23;7.80;;;128.60;2252.80;;;;;;4971091;28;20066;-59
2022/02/17 02:14:56;;;;;;;13.52;8.02;;;128.60;2252.80;;;;;;4970966;28;20053;-59
2022/02/17 02:17:24;;;;;;;17.52;11.45;;;128.70;2252.80;;;;;;4970661;28;20034;-59
2022/02/17 02:19:50;;;;;;;18.13;12.60;;;128.60;2252.80;;;;;;4970862;28;20037;-59
2022/02/17 02:22:16;;;;;;;18.00;12.40;;;128.60;2252.80;;;;;;4971219;28;20039;-60
2022/02/17 02:24:42;;;;;;;15.10;9.05;;;128.50;2252.80;;;;;;4971366;28;20374;-60
2022/02/17 02:27:16;;;;;;;14.15;9.38;;;128.40;2252.80;;;;;;4970597;28;20037;-60
2022/02/17 02:29:43;;;;;;;20.73;13.90;;;128.40;2252.80;;;;;;4970657;28;20042;-60
2022/02/17 02:32:10;;;;;;;25.85;16.10;;;128.40;2252.80;;;;;;4970656;28;20088;-60
2022/02/17 02:34:36;;;;;;;35.30;22.38;;;128.50;2252.80;;;;;;4970895;28;20039;-60
2022/02/17 02:37:05;;;;;;;29.60;18.27;;;128.70;2252.80;;;;;;4970763;28;20022;-59
2022/02/17 02:39:35;;;;;;;19.73;12.52;;;128.50;2252.80;;;;;;4970741;28;20035;-58
2022/02/17 02:42:02;;;;;;;14.32;10.00;;;128.50;2252.80;;;;;;4970515;28;20057;-60
2022/02/17 02:44:28;;;;;;;23.45;13.07;;;128.50;2252.80;;;;;;4970723;28;20034;-60
2022/02/17 02:46:54;;;;;;;35.53;20.25;;;128.40;2252.80;;;;;;4970609;28;20031;-60
2022/02/17 02:49:20;;;;;;;34.78;21.10;;;128.40;2252.80;;;;;;4970490;28;20066;-60
2022/02/17 02:51:46;;;;;;;16.88;11.43;;;128.50;2252.80;;;;;;4970740;28;20536;-60
2022/02/17 02:54:12;;;;;;;15.77;11.57;;;128.50;2252.80;;;;;;4970982;28;20054;-60
2022/02/17 02:56:37;;;;;;;84.72;48.33;;;128.40;2252.80;;;;;;4970427;28;20489;-61
2022/02/17 02:59:04;;;;;;;55.75;33.88;;;128.40;2252.80;;;;;;4970500;28;20035;-60
2022/02/17 03:01:29;;;;;;;74.93;46.35;;;128.50;2252.80;;;;;;4970023;28;20050;-59
2022/02/17 03:03:55;;;;;;;65.82;39.70;;;128.60;2252.80;;;;;;4970397;28;20031;-59
2022/02/17 03:06:21;;;;;;;47.70;28.20;;;128.70;2252.80;;;;;;4970429;28;20023;-59
2022/02/17 03:08:47;;;;;;;52.72;33.35;;;128.50;2252.80;;;;;;4971100;28;20047;-61
2022/02/17 03:11:13;;;;;;;67.10;40.40;;;128.00;2252.80;;;;;;4974436;28;20046;-60
2022/02/17 03:13:39;;;;;;;33.92;19.33;;;103.20;2227.20;;;;;;4974161;28;20035;-60
2022/02/17 03:16:05;;;;;;;27.17;17.63;;;103.30;2227.20;;;;;;4974222;28;20042;-60
2022/02/17 03:18:31;;;;;;;15.57;9.90;;;128.00;2252.80;;;;;;4973963;28;20030;-60
2022/02/17 03:20:57;;;;;;;14.25;9.90;;;103.20;2227.20;;;;;;4974189;28;20023;-60
2022/02/17 03:23:23;;;;;;;17.40;10.38;;;103.20;2227.20;;;;;;4974328;28;20058;-59
2022/02/17 03:25:48;;;;;;;10.75;7.05;;;103.20;2227.20;;;;;;4974266;28;20027;-59
2022/02/17 03:28:15;;;;;;;12.00;8.13;;;103.20;2227.20;;;;;;4973962;28;20031;-57
2022/02/17 03:30:41;;;;;;;12.05;7.82;;;103.10;2227.20;;;;;;4974228;28;20043;-60
2022/02/17 03:33:09;;;;;;;13.20;8.13;;;103.30;2227.20;;;;;;4973774;28;20026;-61
2022/02/17 03:35:34;;;;;;;13.93;7.43;;;103.30;2227.20;;;;;;4974041;28;20031;-60
2022/02/17 03:38:00;;;;;;;19.30;12.02;;;128.00;2252.80;;;;;;4974003;28;20041;-61
2022/02/17 03:40:26;;;;;;;15.55;9.20;;;128.00;2252.80;;;;;;4973905;28;20034;-60
2022/02/17 03:42:51;;;;;;;20.27;11.38;;;128.00;2252.80;;;;;;4973904;28;20023;-59
2022/02/17 03:45:17;;;;;;;19.63;12.65;;;128.00;2252.80;;;;;;4973625;28;20486;-59
2022/02/17 03:47:43;;;;;;;19.52;13.80;;;128.00;2252.80;;;;;;4973635;28;20019;-60
2022/02/17 03:50:10;;;;;;;25.73;14.30;;;128.00;2252.80;;;;;;4973841;28;20031;-59
2022/02/17 03:52:37;;;;;;;26.45;15.98;;;128.00;2252.80;;;;;;4973938;28;20239;-59
2022/02/17 03:55:04;;;;;;;26.63;14.43;;;103.30;2227.20;;;;;;4973940;28;20030;-59
2022/02/17 03:57:30;;;;;;;52.47;31.10;;;103.20;2227.20;;;;;;4973258;28;20027;-59
2022/02/17 03:59:56;;;;;;;38.35;22.00;;;103.30;2227.20;;;;;;4973205;28;20145;-59
2022/02/17 04:02:22;;;;;;;49.97;25.38;;;128.00;2252.80;;;;;;4973200;28;20485;-59
2022/02/17 04:04:47;;;;;;;51.58;27.48;;;103.30;2227.20;;;;;;4973222;28;20057;-60
2022/02/17 04:07:16;;;;;;;42.25;22.80;;;128.00;2252.80;;;;;;4973422;28;20058;-60
2022/02/17 04:09:41;;;;;;;30.83;17.52;;;128.00;2252.80;;;;;;4973258;28;20054;-59
2022/02/17 04:12:08;;;;;;;27.98;15.77;;;128.00;2252.80;;;;;;4973309;28;20381;-59
2022/02/17 04:14:33;;;;;;;30.60;18.15;;;103.30;2227.20;;;;;;4973464;28;20039;-57
2022/02/17 04:16:59;;;;;;;69.65;38.30;;;103.20;2227.20;;;;;;4973182;28;20078;-60
2022/02/17 04:19:26;;;;;;;64.25;36.80;;;103.00;2227.20;;;;;;4972770;28;20031;-58
2022/02/17 04:21:53;;;;;;;39.15;26.75;;;102.90;2227.20;;;;;;4973284;28;20094;-58
2022/02/17 04:24:19;;;;;;;77.18;47.67;;;103.00;2227.20;;;;;;4973241;28;20027;-61
2022/02/17 04:26:45;;;;;;;118.50;64.88;;;102.90;2227.20;;;;;;4973111;28;20477;-58
2022/02/17 04:29:11;;;;;;;90.43;71.45;;;103.00;2227.20;;;;;;4972733;28;20047;-58
2022/02/17 04:31:37;;;;;;;46.58;33.17;;;102.90;2227.20;;;;;;4973308;28;20031;-58
2022/02/17 04:34:03;;;;;;;72.05;38.20;;;102.90;2227.20;;;;;;4973014;28;20023;-60
2022/02/17 04:36:29;;;;;;;58.22;31.45;;;103.00;2227.20;;;;;;4972677;28;20031;-58
2022/02/17 04:38:55;;;;;;;57.45;35.03;;;103.00;2227.20;;;;;;4972691;28;20477;-62
2022/02/17 04:44:05;;;;;;;29.48;23.92;;;102.90;2227.20;;;;;;4973000;28;20150;-59
2022/02/17 04:46:31;;;;;;;26.70;17.83;;;102.90;2227.20;;;;;;4972559;28;20105;-58
2022/02/17 04:48:56;;;;;;;21.75;12.45;;;103.00;2227.20;;;;;;4972449;28;21092;-58
2022/02/17 04:51:22;;;;;;;13.30;9.20;;;103.00;2227.20;;;;;;4972596;28;20077;-60
2022/02/17 04:53:48;;;;;;;20.33;11.82;;;103.00;2227.20;;;;;;4972242;28;20074;-58
2022/02/17 04:56:14;;;;;;;17.48;11.73;;;103.10;2227.20;;;;;;4972734;28;20031;-58
2022/02/17 04:58:40;;;;;;;16.08;8.98;;;103.00;2227.20;;;;;;4972123;28;20512;-62
2022/02/17 05:01:06;;;;;;;10.48;7.43;;;103.10;2227.20;;;;;;4972335;28;20222;-61
2022/02/17 05:03:32;;;;;;;11.07;9.55;;;103.20;2227.20;;;;;;4972326;28;20046;-60
2022/02/17 05:05:58;;;;;;;16.75;11.43;;;103.20;2227.20;;;;;;4972126;28;20483;-59
2022/02/17 05:08:25;;;;;;;16.42;10.90;;;103.20;2227.20;;;;;;4972534;28;20046;-59
2022/02/17 05:10:50;;;;;;;39.88;21.23;;;103.10;2227.20;;;;;;4971923;28;20039;-59
2022/02/17 05:13:16;;;;;;;42.28;27.45;;;103.20;2227.20;;;;;;4972120;28;20034;-62
2022/02/17 05:15:43;;;;;;;15.73;11.40;;;103.30;2227.20;;;;;;4972315;28;20030;-59
2022/02/17 05:18:09;;;;;;;12.18;7.82;;;103.20;2227.20;;;;;;4971736;28;20033;-59
2022/02/17 05:20:35;;;;;;;13.40;10.32;;;103.30;2227.20;;;;;;4971950;28;20489;-60
2022/02/17 05:23:01;;;;;;;19.45;13.73;;;103.10;2227.20;;;;;;4971967;28;20165;-61
2022/02/17 05:25:27;;;;;;;27.45;15.48;;;103.00;2227.20;;;;;;4972166;28;20441;-61
2022/02/17 05:27:53;;;;;;;43.70;34.67;;;102.80;2227.20;;;;;;4971986;28;20480;-61
2022/02/17 05:30:19;;;;;;;13.13;9.13;;;102.90;2227.20;;;;;;4971362;28;20042;-59
2022/02/17 05:32:46;;;;;;;17.00;11.10;;;103.00;2227.20;;;;;;4971192;28;20033;-59
2022/02/17 05:35:12;;;;;;;33.55;18.48;;;103.10;2227.20;;;;;;4971114;28;20161;-58
2022/02/17 05:37:39;;;;;;;22.20;13.75;;;128.00;2252.80;;;;;;4970383;28;20031;-62
2022/02/17 05:40:07;;;;;;;32.58;17.10;;;128.50;2252.80;;;;;;4970469;28;20023;-59
2022/02/17 05:42:33;;;;;;;46.25;27.38;;;128.80;2252.80;;;;;;4970175;28;20374;-60
2022/02/17 05:44:59;;;;;;;24.15;15.23;;;128.90;2252.80;;;;;;4970057;28;20058;-59
2022/02/17 05:47:24;;;;;;;11.77;7.82;;;153.60;2252.80;;;;;;4970095;28;20109;-59
2022/02/17 05:49:50;;;;;;;8.73;5.85;;;153.70;2252.80;;;;;;4969814;28;20393;-60
2022/02/17 05:52:16;;;;;;;15.23;8.95;;;153.90;2252.80;;;;;;4970168;28;20019;-60
2022/02/17 05:54:42;;;;;;;10.43;7.32;;;153.70;2252.80;;;;;;4970345;28;20031;-59
2022/02/17 05:57:08;;;;;;;19.90;11.38;;;153.60;2252.80;;;;;;4969931;28;20023;-59
2022/02/17 05:59:34;;;;;;;18.83;11.02;;;128.90;2252.80;;;;;;4969933;28;20177;-59
2022/02/17 06:02:00;;;;;;;38.15;21.48;;;128.90;2252.80;;;;;;4969459;28;20134;-59
2022/02/17 06:04:25;;;;;;;88.20;40.05;;;128.90;2252.80;;;;;;4970569;28;20026;-59
2022/02/17 06:06:52;;;;;;;55.75;25.40;;;153.70;2252.80;;;;;;4970843;28;20023;-59
2022/02/17 06:09:17;;;;;;;21.95;12.98;;;153.80;2252.80;;;;;;4970511;28;20485;-61
2022/02/17 06:11:43;;;;;;;12.82;8.35;;;153.80;2252.80;;;;;;4970844;28;20101;-59
2022/02/17 06:14:09;;;;;;;10.02;7.05;;;153.80;2252.80;;;;;;4970766;28;20037;-60
2022/02/17 06:16:35;;;;;;;11.35;6.53;;;154.00;2252.80;;;;;;4971277;28;20029;-59
2022/02/17 06:19:00;;;;;;;11.63;6.28;;;154.10;2252.80;;;;;;4971803;28;20468;-59
2022/02/17 06:21:26;;;;;;;8.93;5.93;;;154.20;2252.80;;;;;;4971478;28;20027;-59
2022/02/17 06:23:52;;;;;;;9.55;6.35;;;154.00;2252.80;;;;;;4970244;28;20535;-62
2022/02/17 06:26:18;;;;;;;14.95;13.45;;;154.40;2252.80;;;;;;4971357;28;20026;-59
2022/02/17 06:28:45;;;;;;;10.25;6.35;;;154.50;2252.80;;;;;;4971105;28;20781;-62
2022/02/17 06:31:11;;;;;;;14.13;7.13;;;154.50;2252.80;;;;;;4970858;28;20114;-63
2022/02/17 06:33:37;;;;;;;11.68;7.95;;;179.30;2252.80;;;;;;4979880;28;20034;-59
2022/02/17 06:36:03;;;;;;;11.45;7.68;;;179.30;2252.80;;;;;;4980755;28;20032;-58
2022/02/17 06:38:30;;;;;;;11.98;8.50;;;179.40;2252.80;;;;;;4978740;28;20030;-59
2022/02/17 06:40:56;;;;;;;14.85;10.43;;;179.40;2252.80;;;;;;4982028;28;20038;-58
2022/02/17 06:43:23;;;;;;;17.00;12.50;;;179.30;2252.80;;;;;;4980215;28;20023;-57
2022/02/17 06:45:50;;;;;;;17.48;12.70;;;179.50;2252.80;;;;;;4978690;28;20500;-57
2022/02/17 06:48:16;;;;;;;13.32;11.00;;;179.70;2252.80;;;;;;4971998;28;20737;-58
2022/02/17 06:50:42;;;;;;;18.38;11.02;;;179.80;2252.80;;;;;;4979441;28;20413;-57
2022/02/17 06:53:08;;;;;;;15.88;10.73;;;180.10;2252.80;;;;;;4989979;28;20054;-58
2022/02/17 06:55:34;;;;;;;47.63;32.55;;;205.00;2252.80;;;;;;4990741;28;20061;-60
2022/02/17 06:58:00;;;;;;;100.75;76.07;;;205.20;2252.80;;;;;;4990766;28;20042;-61
2022/02/17 07:00:26;;;;;;;83.20;60.03;;;204.80;2252.80;;;;;;4990383;28;20478;-59
2022/02/17 07:02:54;;;;;;;161.07;98.78;;;179.90;2252.80;;;;;;4990427;28;20113;-59
2022/02/17 07:05:25;;;;;;;128.93;87.57;;;180.10;2252.80;;;;;;4990510;28;20431;-59
2022/02/17 07:07:51;;;;;;;100.78;68.68;;;204.80;2252.80;;;;;;4990399;28;20114;-59
2022/02/17 07:13:03;;;;;;;51.75;36.30;;;179.80;2252.80;;;;;;4990870;28;20088;-57
2022/02/17 07:15:30;;;;;;;36.83;24.85;;;179.60;2252.80;;;;;;4990497;28;20096;-59
2022/02/17 07:17:56;;;;;;;26.77;21.65;;;179.80;2252.80;;;;;;4990604;28;20388;-57
2022/02/17 07:20:22;;;;;;;47.60;36.13;;;179.70;2252.80;;;;;;4990593;28;20037;-57
2022/02/17 07:22:48;;;;;;;21.73;15.32;;;179.80;2252.80;;;;;;4990430;28;20023;-61
2022/02/17 07:25:14;;;;;;;17.17;10.52;;;179.70;2252.80;;;;;;4990820;28;20096;-58
2022/02/17 07:27:40;;;;;;;28.00;18.30;;;179.60;2252.80;;;;;;4990422;28;20023;-61
2022/02/17 07:30:06;;;;;;;28.27;16.48;;;179.70;2252.80;;;;;;4990528;28;20057;-58
2022/02/17 07:32:32;;;;;;;22.75;16.88;;;179.80;2252.80;;;;;;4990326;28;20035;-59
2022/02/17 07:34:57;;;;;;;34.85;26.60;;;179.90;2252.80;;;;;;4990540;28;20408;-58
2022/02/17 07:37:24;;;;;;;35.85;24.60;;;179.90;2252.80;;;;;;4990466;28;20491;-58
2022/02/17 07:39:49;;;;;;;22.30;17.17;;;179.90;2252.80;;;;;;4990356;28;20109;-58
2022/02/17 07:42:16;;;;;;;24.60;17.17;;;180.10;2252.80;;;;;;4990608;28;20053;-58
2022/02/17 07:44:42;;;;;;;34.03;25.77;;;204.80;2252.80;;;;;;4990330;28;20412;-60
2022/02/17 07:47:08;;;;;;;166.43;109.25;;;204.90;2252.80;;;;;;4990429;28;20378;-60
2022/02/17 07:49:34;;;;;;;266.08;167.00;;;204.90;2252.80;;;;;;4990451;28;20066;-60
2022/02/17 07:51:59;;;;;;;217.18;140.75;;;204.90;2252.80;;;;;;4990042;28;20460;-57
2022/02/17 07:54:25;;;;;;;36.42;26.33;;;204.80;2252.80;;;;;;4990628;28;20027;-56
2022/02/17 07:56:52;;;;;;;22.10;17.38;;;180.10;2252.80;;;;;;4993786;28;20092;-57
2022/02/17 07:59:17;;;;;;;21.98;15.85;;;204.80;2252.80;;;;;;4993827;28;20544;-57
2022/02/17 08:01:43;;;;;;;22.08;15.20;;;204.80;2252.80;;;;;;4993685;28;20484;-60
2022/02/17 08:04:09;;;;;;;24.58;17.35;;;204.80;2252.80;;;;;;4993510;28;20034;-60
2022/02/17 08:06:35;;;;;;;29.13;18.58;;;204.80;2252.80;;;;;;4993733;28;20516;-58
2022/02/17 08:09:00;;;;;;;133.85;93.70;;;205.10;2252.80;;;;;;4993386;28;20488;-62
2022/02/17 08:11:26;;;;;;;300.33;210.60;;;205.20;2252.80;;;;;;4993674;28;20461;-62
2022/02/17 08:13:53;;;;;;;225.02;157.30;;;205.00;2252.80;;;;;;4976197;28;20058;-58
2022/02/17 08:16:20;;;;;;;166.00;117.68;;;205.00;2252.80;;;;;;4993192;28;20022;-58
2022/02/17 08:18:45;;;;;;;80.20;53.67;;;205.00;2252.80;;;;;;4993703;28;20053;-59
2022/02/17 08:21:11;;;;;;;35.17;25.35;;;205.40;2252.80;;;;;;4993406;28;20462;-59
2022/02/17 08:23:37;;;;;;;30.23;20.50;;;205.70;2252.80;;;;;;4993726;28;20034;-59
2022/02/17 08:26:03;;;;;;;126.20;69.43;;;205.70;2252.80;;;;;;4993590;28;20388;-58
2022/02/17 08:28:29;;;;;;;112.97;68.45;;;230.50;2252.80;;;;;;4993027;28;20396;-59
2022/02/17 08:30:55;;;;;;;77.50;49.13;;;230.80;2252.80;;;;;;4993205;28;20030;-59
2022/02/17 08:33:21;;;;;;;59.58;38.03;;;230.90;2252.80;;;;;;4993056;28;20035;-59
2022/02/17 08:35:46;;;;;;;61.15;45.80;;;231.10;2252.80;;;;;;4993219;28;20512;-59
2022/02/17 08:38:13;;;;;;;69.10;49.15;;;231.20;2252.80;;;;;;4993093;28;20026;-59
2022/02/17 08:40:38;;;;;;;42.60;30.35;;;231.00;2252.80;;;;;;4993027;28;20053;-58
2022/02/17 08:43:10;;;;;;;46.95;39.95;;;231.10;2252.80;;;;;;4993068;28;20520;-59
2022/02/17 08:45:37;;;;;;;49.58;38.03;;;256.00;2252.80;;;;;;4992989;28;20057;-58
2022/02/17 08:48:03;;;;;;;33.78;25.30;;;256.50;2252.80;;;;;;4992504;28;20069;-59
2022/02/17 08:50:29;;;;;;;25.25;22.55;;;256.90;2252.80;;;;;;4992642;28;20032;-59
2022/02/17 08:52:55;;;;;;;123.68;83.43;;;281.80;2278.40;;;;;;4992876;28;20101;-59
2022/02/17 08:55:20;;;;;;;79.85;52.05;;;281.90;2278.40;;;;;;4992525;28;20047;-59
2022/02/17 08:57:47;;;;;;;102.05;78.50;;;282.00;2278.40;;;;;;4992795;28;20022;-59
2022/02/17 09:00:14;;;;;;;209.68;153.25;;;282.00;2278.40;;;;;;4992659;28;20034;-58
2022/02/17 09:02:40;;;;;;;183.80;140.75;;;282.00;2278.40;;;;;;4992383;28;20555;-58
2022/02/17 09:05:07;;;;;;;155.43;115.85;;;256.30;2252.80;;;;;;4992563;28;20030;-58
2022/02/17 09:07:33;;;;;;;148.70;110.70;;;256.30;2252.80;;;;;;4991952;28;20073;-58
2022/02/17 09:10:00;;;;;;;159.13;122.45;;;256.60;2252.80;;;;;;4992178;28;20054;-58
2022/02/17 09:12:33;;;;;;;130.50;106.63;;;256.80;2252.80;;;;;;4992354;28;20490;-58
2022/02/17 09:14:59;;;;;;;93.30;71.28;;;281.60;2278.40;;;;;;4992179;28;20030;-58
2022/02/17 09:17:25;;;;;;;175.65;130.63;;;256.90;2252.80;;;;;;4992542;28;20030;-58
2022/02/17 09:19:50;;;;;;;129.10;90.20;;;256.60;2252.80;;;;;;4992376;28;20480;-58
2022/02/17 09:22:16;;;;;;;112.90;82.82;;;256.80;2252.80;;;;;;4992320;28;20452;-59
2022/02/17 09:24:42;;;;;;;111.90;78.28;;;256.80;2252.80;;;;;;4992332;28;20037;-58
2022/02/17 09:27:07;;;;;;;119.80;91.53;;;256.90;2252.80;;;;;;4992266;28;20054;-60
2022/02/17 09:29:33;;;;;;;242.88;206.00;;;281.60;2278.40;;;;;;4991858;28;20094;-58
2022/02/17 09:31:59;;;;;;;141.02;107.53;;;281.80;2278.40;;;;;;4991916;28;20034;-58
2022/02/17 09:34:26;;;;;;;167.15;120.15;;;281.80;2278.40;;;;;;4992227;28;20028;-57
2022/02/17 09:36:52;;;;;;;275.38;195.32;;;282.00;2278.40;;;;;;4991850;28;20034;-58
2022/02/17 09:39:18;;;;;;;146.30;110.60;;;282.20;2278.40;;;;;;4992021;28;20054;-58
2022/02/17 09:41:45;;;;;;;152.88;105.05;;;282.30;2278.40;;;;;;4992030;28;20380;-58
2022/02/17 09:44:11;;;;;;;146.07;110.75;;;282.50;2278.40;;;;;;4991711;28;20026;-58
2022/02/17 09:46:41;;;;;;;166.68;124.25;;;307.20;2304.00;;;;;;4991636;28;20372;-61
2022/02/17 09:49:08;;;;;;;119.05;91.72;;;307.30;2304.00;;;;;;4991644;28;20046;-58
2022/02/17 09:51:34;;;;;;;99.45;72.30;;;307.30;2304.00;;;;;;4991643;28;20477;-58
2022/02/17 09:54:02;;;;;;;69.68;53.55;;;307.50;2304.00;;;;;;4991576;28;20132;-58
2022/02/17 09:56:28;;;;;;;150.88;114.18;;;307.60;2304.00;;;;;;4991513;28;20026;-58
2022/02/17 09:58:55;;;;;;;269.45;203.88;;;307.50;2304.00;;;;;;4991390;28;20472;-58
2022/02/17 10:01:26;;;;;;;414.67;308.80;;;307.30;2304.00;;;;;;4991202;28;20046;-58
2022/02/17 10:04:13;;;;;;;381.80;281.00;;;282.10;2278.40;;;;;;4991362;28;20030;-58
2022/02/17 10:06:51;;;;;;;402.10;299.67;;;282.10;2278.40;;;;;;4991120;28;20385;-58
2022/02/17 10:09:18;;;;;;;366.88;265.08;;;282.30;2278.40;;;;;;4991381;28;20038;-58
2022/02/17 10:11:46;;;;;;;326.13;241.60;;;282.30;2278.40;;;;;;4991396;28;20031;-58
2022/02/17 10:14:17;;;;;;;312.90;238.77;;;282.50;2278.40;;;;;;4991635;28;20030;-58
2022/02/17 10:16:50;;;;;;;337.45;259.20;;;307.30;2304.00;;;;;;4991510;28;20109;-58
2022/02/17 10:19:16;;;;;;;295.90;222.57;;;307.60;2304.00;;;;;;4991207;28;20544;-58
2022/02/17 10:21:42;;;;;;;303.60;228.32;;;307.80;2304.00;;;;;;4991460;28;20030;-58
2022/02/17 10:24:08;;;;;;;323.23;234.50;;;308.00;2304.00;;;;;;4991033;28;20030;-58
2022/02/17 10:26:34;;;;;;;258.17;193.45;;;307.80;2304.00;;;;;;4991119;28;20118;-59
2022/02/17 10:29:03;;;;;;;319.00;262.83;;;307.90;2304.00;;;;;;4990964;28;20038;-58
2022/02/17 10:31:31;;;;;;;229.38;177.57;;;332.80;2329.60;;;;;;4991197;28;20039;-58
2022/02/17 10:33:58;;;;;;;186.88;145.55;;;333.20;2329.60;;;;;;4991142;28;20054;-59
2022/02/17 10:36:46;;;;;;;163.30;119.55;;;333.60;2329.60;;;;;;4991058;28;20089;-59
2022/02/17 10:39:23;;;;;;;94.13;66.43;;;333.70;2329.60;;;;;;4990929;28;20365;-58
2022/02/17 10:41:55;;;;;;;97.65;65.10;;;358.50;2329.60;;;;;;4990791;28;20380;-59
2022/02/17 10:44:24;;;;;;;153.25;122.95;;;358.70;2329.60;;;;;;4990745;28;20461;-58
2022/02/17 10:46:49;;;;;;;94.43;67.35;;;333.70;2329.60;;;;;;4990764;28;20428;-59
2022/02/17 10:49:21;;;;;;;87.05;66.20;;;333.60;2329.60;;;;;;4990869;28;20039;-58
2022/02/17 10:51:48;;;;;;;107.72;64.75;;;358.50;2304.00;;;;;;4990805;28;20105;-63
2022/02/17 10:54:22;;;;;;;95.30;56.25;;;358.70;2201.60;;;;;;4991066;28;20057;-57
2022/02/17 10:56:52;;;;;;;70.13;37.08;;;358.90;2048.00;;;;;;4990581;28;20029;-58
2022/02/17 11:02:05;;;;;;;56.58;34.25;;;384.10;1868.80;;;;;;4974888;28;20101;-58
2022/02/17 11:04:31;;;;;;;72.30;51.50;;;384.50;1868.80;;;;;;4988895;28;20038;-58
2022/02/17 11:06:58;;;;;;;111.50;79.00;;;384.90;1868.80;;;;;;4989244;28;20097;-60
2022/02/17 11:09:24;;;;;;;338.67;280.63;;;384.90;1868.80;;;;;;4990178;28;20030;-58
2022/02/17 11:11:51;;;;;;;207.85;157.15;;;359.00;2329.60;;;;;;4990531;28;20034;-59
2022/02/17 11:14:37;;;;;;;99.78;70.25;;;384.00;2329.60;;;;;;4990437;28;20022;-60
2022/02/17 11:17:05;;;;;;;78.70;58.83;;;384.40;1894.40;;;;;;4990701;28;20472;-60
2022/02/17 11:19:31;;;;;;;170.30;130.40;;;384.60;1792.00;;;;;;4990645;28;20386;-61
2022/02/17 11:21:57;;;;;;;321.08;261.38;;;384.70;1766.40;;;;;;4990277;28;20562;-59
2022/02/17 11:24:23;;;;;;;25.80;20.33;;;384.90;1766.40;;;;;;4990657;28;20113;-61
2022/02/17 11:27:06;;;;;;;20.85;13.55;;;409.60;1715.20;;;;;;4990298;28;20350;-59
2022/02/17 11:29:33;;;;;;;665.90;536.00;;;410.00;1715.20;;;;;;4990553;28;20038;-60
2022/02/17 11:32:07;;;;;;;346.50;282.80;;;410.10;1740.80;;;;;;4994274;28;20042;-59
2022/02/17 11:34:48;;;;;;;116.63;104.13;;;410.20;1740.80;;;;;;4994192;28;20023;-60
2022/02/17 11:37:20;;;;;;;34.38;25.65;;;410.40;1740.80;;;;;;4994339;28;20030;-66
2022/02/17 11:40:15;;;;;;;61.08;36.85;;;435.20;1689.60;;;;;;4994189;28;20067;-59
2022/02/17 11:42:47;;;;;;;25.15;18.73;;;435.30;1689.60;;;;;;4992681;28;20062;-59
2022/02/17 11:45:21;;;;;;;36.83;25.85;;;435.30;1612.80;;;;;;4994331;28;20081;-59
2022/02/17 11:48:02;;;;;;;29.55;19.08;;;435.30;1612.80;;;;;;4993995;28;20026;-61
2022/02/17 11:50:31;;;;;;;37.88;20.77;;;435.40;1561.60;;;;;;4993644;28;20544;-59
2022/02/17 11:53:25;;;;;;;59.53;29.70;;;435.60;1587.20;;;;;;4993992;28;20019;-59
2022/02/17 11:55:52;;;;;;;33.70;20.17;;;435.70;1561.60;;;;;;4993958;28;20023;-58
2022/02/17 11:58:38;;;;;;;35.67;24.08;;;435.70;1536.00;;;;;;4993499;28;20431;-59
2022/02/17 12:01:25;;;;;;;44.17;25.05;;;435.80;1587.20;;;;;;4983343;28;20050;-60
2022/02/17 12:03:57;;;;;;;19.92;11.48;;;435.60;1561.60;;;;;;4975993;28;20031;-58